Time;durP1;ratioP1;P1;durP2;ratioP2;P2;SDS_P1;SDS_P2;PMS_P1;PMS_P2;Temp;Humidity;BMP_temperature;BMP_pressure;BME280_temperature;BME280_humidity;BME280_pressure;Samples;Min_cycle;Max_cycle;Signal;HPM_P1;HPM_P2
2023/04/11 00:00:45;;;;;;;;;5.33;2.33;;;;;13.29;100.00;101302.75;5048497;28;45471;-73
2023/04/11 00:03:10;;;;;;;;;2.67;1.00;;;;;13.14;100.00;101305.97;5018166;28;45920;-73
2023/04/11 00:05:36;;;;;;;;;0.00;0.00;;;;;13.16;100.00;101317.59;5027543;28;45395;-73
2023/04/11 00:08:01;;;;;;;;;2.00;2.00;;;;;13.09;100.00;101329.22;5038068;28;45461;-73
2023/04/11 00:10:27;;;;;;;;;3.00;2.67;;;;;13.15;100.00;101347.78;5045798;28;45884;-73
2023/04/11 00:12:55;;;;;;;;;2.33;1.33;;;;;13.09;100.00;101324.63;5022987;28;45485;-73
2023/04/11 00:15:22;;;;;;;;;2.00;2.00;;;;;13.09;100.00;101319.16;5027720;28;45324;-73
2023/04/11 00:17:48;;;;;;;;;0.33;0.00;;;;;13.23;100.00;101321.41;5046544;28;45424;-73
2023/04/11 00:20:13;;;;;;;;;2.00;1.00;;;;;13.18;100.00;101344.72;5022556;28;45556;-73
2023/04/11 00:22:39;;;;;;;;;4.00;1.67;;;;;13.21;100.00;101356.22;5020778;28;45465;-73
2023/04/11 00:25:05;;;;;;;;;1.33;1.00;;;;;12.81;100.00;101314.69;5034072;28;45413;-73
2023/04/11 00:27:30;;;;;;;;;2.33;2.00;;;;;12.96;100.00;101359.56;5029024;28;46668;-74
2023/04/11 00:29:56;;;;;;;;;2.67;0.00;;;;;12.81;100.00;101311.97;5021655;28;45514;-73
2023/04/11 00:32:26;;;;;;;;;1.00;1.00;;;;;12.84;100.00;101325.31;5047406;28;45465;-73
2023/04/11 00:34:51;;;;;;;;;3.50;1.00;;;;;12.90;100.00;101352.00;5042816;28;45156;-73
2023/04/11 00:37:20;;;;;;;;;2.33;1.00;;;;;12.96;100.00;101334.16;5017790;28;45400;-73
2023/04/11 00:39:49;;;;;;;;;2.00;0.67;;;;;12.73;100.00;101311.84;5052854;28;45373;-73
2023/04/11 00:42:14;;;;;;;;;3.33;2.33;;;;;12.59;100.00;101320.50;5022607;28;45413;-74
2023/04/11 00:44:39;;;;;;;;;2.00;2.00;;;;;12.69;100.00;101359.50;5031694;28;45563;-73
2023/04/11 00:47:06;;;;;;;;;6.00;1.00;;;;;12.75;100.00;101348.00;5047354;28;46566;-73
2023/04/11 00:49:32;;;;;;;;;1.67;1.00;;;;;12.76;100.00;101336.97;5053416;28;45403;-73
2023/04/11 00:52:02;;;;;;;;;4.00;1.00;;;;;12.76;100.00;101360.66;5030311;28;45354;-73
2023/04/11 00:54:29;;;;;;;;;4.00;1.00;;;;;12.66;100.00;101352.47;5054567;28;45429;-73
2023/04/11 00:57:02;;;;;;;;;1.67;1.00;;;;;12.43;100.00;101345.63;5030217;28;46368;-73
2023/04/11 00:59:29;;;;;;;;;5.00;2.00;;;;;12.26;100.00;101320.00;5027306;28;45377;-74
2023/04/11 01:01:55;;;;;;;;;1.00;1.00;;;;;12.64;100.00;101359.94;5031564;28;45466;-73
2023/04/11 01:04:20;;;;;;;;;5.67;1.00;;;;;12.51;100.00;101361.25;5045742;28;45488;-74
2023/04/11 01:06:51;;;;;;;;;3.00;2.00;;;;;12.28;100.00;101326.16;5049296;28;45599;-74
2023/04/11 01:09:20;;;;;;;;;2.67;2.00;;;;;12.37;100.00;101338.91;5043726;28;45240;-73
2023/04/11 01:11:47;;;;;;;;;0.33;0.00;;;;;12.28;100.00;101345.22;5048985;28;45335;-73
2023/04/11 01:14:17;;;;;;;;;0.00;0.00;;;;;12.61;100.00;101365.69;5044213;28;45182;-73
2023/04/11 01:16:45;;;;;;;;;3.00;0.67;;;;;12.52;100.00;101362.97;5030982;28;45441;-73
2023/04/11 01:19:17;;;;;;;;;2.00;0.33;;;;;12.20;100.00;101377.78;5051232;28;45456;-73
2023/04/11 01:21:43;;;;;;;;;1.00;1.00;;;;;12.37;100.00;101390.69;5049478;28;45268;-73
2023/04/11 01:24:09;;;;;;;;;4.00;1.00;;;;;12.23;100.00;101358.44;5039964;28;45465;-73
2023/04/11 01:26:34;;;;;;;;;0.33;0.00;;;;;12.18;100.00;101373.50;5044812;28;45454;-73
2023/04/11 01:29:01;;;;;;;;;3.33;1.00;;;;;12.35;100.00;101368.16;5044768;28;45474;-73
2023/04/11 01:31:27;;;;;;;;;1.00;1.00;;;;;12.32;100.00;101371.19;5030204;28;45494;-73
2023/04/11 01:33:52;;;;;;;;;5.00;1.00;;;;;12.18;100.00;101314.44;5021776;28;45432;-73
2023/04/11 01:36:18;;;;;;;;;10.33;2.67;;;;;12.24;100.00;101360.16;5024807;28;47367;-73
2023/04/11 01:38:43;;;;;;;;;2.00;2.00;;;;;12.31;100.00;101374.06;5047159;28;45390;-73
2023/04/11 01:41:09;;;;;;;;;0.67;0.00;;;;;12.44;100.00;101389.09;5028886;28;45248;-73
2023/04/11 01:43:35;;;;;;;;;2.67;2.00;;;;;12.38;100.00;101395.13;5048238;28;45526;-73
2023/04/11 01:46:00;;;;;;;;;2.67;2.00;;;;;12.51;100.00;101403.00;5017911;28;47848;-73
2023/04/11 01:48:26;;;;;;;;;1.67;1.67;;;;;12.26;100.00;101366.31;5047551;28;45481;-73
2023/04/11 01:50:54;;;;;;;;;2.00;2.00;;;;;12.45;100.00;101377.19;5031759;28;45272;-73
2023/04/11 01:53:19;;;;;;;;;1.67;1.00;;;;;12.60;100.00;101393.09;5049519;28;45927;-73
2023/04/11 01:55:45;;;;;;;;;5.67;1.33;;;;;12.46;100.00;101402.59;5031270;28;47634;-73
2023/04/11 01:58:10;;;;;;;;;2.33;1.00;;;;;12.23;100.00;101385.66;5049197;28;45308;-73
2023/04/11 02:00:35;;;;;;;;;1.00;1.00;;;;;12.10;100.00;101371.47;5049555;28;45209;-73
2023/04/11 02:03:01;;;;;;;;;5.00;2.00;;;;;12.05;100.00;101373.78;5023433;28;45399;-73
2023/04/11 02:05:27;;;;;;;;;1.67;1.67;;;;;12.12;100.00;101394.00;5047251;28;46301;-74
2023/04/11 02:07:52;;;;;;;;;1.67;0.67;;;;;12.20;100.00;101390.56;5043464;28;45347;-75
2023/04/11 02:10:18;;;;;;;;;4.00;1.67;;;;;12.31;100.00;101420.38;5044474;28;45264;-72
2023/04/11 02:12:43;;;;;;;;;4.00;1.00;;;;;12.22;100.00;101416.63;5045308;28;45441;-73
2023/04/11 02:15:09;;;;;;;;;1.00;1.00;;;;;12.15;100.00;101382.78;5025431;28;47056;-73
2023/04/11 02:17:35;;;;;;;;;3.67;2.00;;;;;11.96;100.00;101385.53;5050079;28;45313;-74
2023/04/11 02:20:01;;;;;;;;;2.33;1.33;;;;;12.00;100.00;101395.13;5030289;28;45497;-75
2023/04/11 02:22:26;;;;;;;;;2.67;1.33;;;;;12.08;100.00;101415.19;5045775;28;45481;-73
2023/04/11 02:24:52;;;;;;;;;3.00;1.67;;;;;12.30;100.00;101427.69;5016868;28;46750;-74
2023/04/11 02:27:17;;;;;;;;;5.00;1.33;;;;;12.11;100.00;101397.72;5027333;28;47319;-73
2023/04/11 02:29:42;;;;;;;;;2.00;2.00;;;;;12.07;100.00;101401.72;5036882;28;45345;-72
2023/04/11 02:32:08;;;;;;;;;1.67;1.33;;;;;11.86;100.00;101400.97;5043739;28;45426;-73
2023/04/11 02:34:33;;;;;;;;;4.00;2.33;;;;;11.90;100.00;101416.06;5036275;28;45703;-73
2023/04/11 02:36:59;;;;;;;;;1.67;1.33;;;;;12.12;100.00;101431.28;5044430;28;45450;-73
2023/04/11 02:39:25;;;;;;;;;4.00;1.00;;;;;12.05;100.00;101409.19;5046711;28;45351;-73
2023/04/11 02:41:50;;;;;;;;;3.00;0.33;;;;;11.98;100.00;101403.41;5045506;28;45501;-73
2023/04/11 02:44:17;;;;;;;;;2.00;1.00;;;;;12.07;100.00;101399.00;5045123;28;47719;-73
2023/04/11 02:46:42;;;;;;;;;3.00;3.00;;;;;12.27;100.00;101425.22;5044999;28;45501;-73
2023/04/11 02:49:08;;;;;;;;;1.00;1.00;;;;;12.27;100.00;101406.16;5029031;28;45253;-73
2023/04/11 02:51:33;;;;;;;;;3.33;3.33;;;;;12.06;100.00;101391.81;5028321;28;45635;-73
2023/04/11 02:53:58;;;;;;;;;1.00;1.00;;;;;12.12;100.00;101407.63;5028811;28;47852;-73
2023/04/11 02:56:24;;;;;;;;;1.33;1.00;;;;;11.85;100.00;101407.41;5031767;28;45410;-73
2023/04/11 02:58:51;;;;;;;;;2.67;1.67;;;;;12.00;100.00;101411.47;5025742;28;45285;-73
2023/04/11 03:01:18;;;;;;;;;4.33;2.00;;;;;11.94;100.00;101412.03;5013591;28;45652;-73
2023/04/11 03:03:44;;;;;;;;;2.00;2.00;;;;;11.89;100.00;101439.69;5034309;28;47579;-74
2023/04/11 03:06:09;;;;;;;;;4.67;2.00;;;;;11.74;100.00;101422.03;5033599;28;45447;-73
2023/04/11 03:08:36;;;;;;;;;1.67;1.33;;;;;11.76;100.00;101424.63;5037192;28;45485;-73
2023/04/11 03:11:02;;;;;;;;;4.67;2.00;;;;;11.38;100.00;101392.66;5051498;28;45706;-73
2023/04/11 03:13:27;;;;;;;;;2.00;1.33;;;;;11.77;100.00;101416.28;5037868;28;45402;-73
2023/04/11 03:15:52;;;;;;;;;6.33;3.00;;;;;11.79;100.00;101432.50;5050340;28;45377;-73
2023/04/11 03:18:20;;;;;;;;;2.00;2.00;;;;;11.45;100.00;101416.47;5042510;28;45351;-73
2023/04/11 03:20:45;;;;;;;;;2.33;1.00;;;;;11.58;100.00;101422.53;5051600;28;45308;-73
2023/04/11 03:23:11;;;;;;;;;3.00;2.00;;;;;11.80;100.00;101447.81;5041970;28;45541;-73
2023/04/11 03:25:36;;;;;;;;;1.67;1.00;;;;;11.98;100.00;101457.88;5021205;28;45457;-73
2023/04/11 03:28:02;;;;;;;;;3.50;2.00;;;;;11.97;100.00;101449.88;5046800;28;45467;-73
2023/04/11 03:30:28;;;;;;;;;3.00;1.00;;;;;11.62;100.00;101434.84;5011945;28;45340;-73
2023/04/11 03:32:53;;;;;;;;;2.00;2.00;;;;;12.01;100.00;101451.31;5034680;28;46145;-74
2023/04/11 03:35:19;;;;;;;;;2.00;1.33;;;;;11.94;100.00;101463.75;5023326;28;45422;-74
2023/04/11 03:37:45;;;;;;;;;3.33;2.00;;;;;11.69;100.00;101425.13;5018380;28;45257;-74
2023/04/11 03:40:10;;;;;;;;;2.00;2.00;;;;;11.74;100.00;101412.97;5051338;28;45577;-73
2023/04/11 03:42:36;;;;;;;;;2.00;2.00;;;;;11.75;100.00;101461.00;5023743;28;46863;-73
2023/04/11 03:45:01;;;;;;;;;6.33;2.33;;;;;11.80;100.00;101467.75;5050093;28;45264;-74
2023/04/11 03:47:27;;;;;;;;;3.67;2.00;;;;;11.64;100.00;101449.19;5021140;28;45284;-74
2023/04/11 03:49:52;;;;;;;;;9.00;2.00;;;;;11.61;100.00;101452.19;5022917;28;45392;-73
2023/04/11 03:52:17;;;;;;;;;1.00;1.00;;;;;11.74;100.00;101471.03;5038116;28;45610;-73
2023/04/11 03:54:43;;;;;;;;;3.00;2.00;;;;;11.55;100.00;101439.09;5049612;28;45343;-73
2023/04/11 03:57:09;;;;;;;;;5.00;3.00;;;;;11.86;100.00;101471.78;5028587;28;45273;-74
2023/04/11 03:59:34;;;;;;;;;3.00;1.67;;;;;11.56;100.00;101462.59;5022949;28;45462;-73
2023/04/11 04:02:00;;;;;;;;;1.00;1.00;;;;;11.67;100.00;101465.25;5039478;28;45569;-74
2023/04/11 04:04:25;;;;;;;;;3.00;1.00;;;;;11.63;100.00;101479.25;5041568;28;45408;-73
2023/04/11 04:06:55;;;;;;;;;5.00;2.00;;;;;11.67;100.00;101478.00;5023514;28;45391;-73
2023/04/11 04:09:22;;;;;;;;;5.33;3.00;;;;;11.68;100.00;101463.38;5040045;28;45396;-73
2023/04/11 04:11:47;;;;;;;;;7.00;4.00;;;;;11.93;100.00;101473.78;5046208;28;46466;-73
2023/04/11 04:14:12;;;;;;;;;3.33;2.00;;;;;11.49;100.00;101466.00;5023051;28;45286;-73
2023/04/11 04:16:38;;;;;;;;;5.00;2.00;;;;;11.52;100.00;101458.47;5046067;28;45651;-73
2023/04/11 04:19:03;;;;;;;;;2.00;1.00;;;;;11.57;100.00;101453.44;5039164;28;45370;-74
2023/04/11 04:21:31;;;;;;;;;7.67;3.67;;;;;11.45;100.00;101438.22;5014761;28;47452;-71
2023/04/11 04:24:02;;;;;;;;;6.67;3.00;;;;;11.56;100.00;101446.28;5038886;28;45355;-75
2023/04/11 04:26:30;;;;;;;;;3.33;2.00;;;;;11.57;100.00;101479.81;5040605;28;45533;-73
2023/04/11 04:29:03;;;;;;;;;1.33;1.00;;;;;11.20;100.00;101423.22;5020125;28;45467;-73
2023/04/11 04:31:32;;;;;;;;;3.00;1.00;;;;;11.55;100.00;101482.66;5041457;28;46614;-73
2023/04/11 04:34:07;;;;;;;;;3.67;3.67;;;;;11.20;100.00;101457.72;5017799;28;45399;-72
2023/04/11 04:36:45;;;;;;;;;1.67;1.00;;;;;11.40;100.00;101467.69;5042875;28;45590;-73
2023/04/11 04:39:17;;;;;;;;;2.00;2.00;;;;;11.50;100.00;101463.16;5042600;28;44734;-73
2023/04/11 04:41:56;;;;;;;;;2.33;2.00;;;;;11.53;100.00;101481.09;5026236;28;47185;-72
2023/04/11 04:44:22;;;;;;;;;4.67;3.00;;;;;11.44;100.00;101479.19;5024574;28;45177;-73
2023/04/11 04:46:54;;;;;;;;;6.00;2.00;;;;;11.43;100.00;101463.84;5045728;28;45430;-72
2023/04/11 04:49:20;;;;;;;;;2.00;0.33;;;;;11.44;100.00;101466.44;5047853;28;45459;-74
2023/04/11 04:51:45;;;;;;;;;4.33;3.00;;;;;11.62;100.00;101494.72;5046906;28;45486;-73
2023/04/11 04:54:11;;;;;;;;;3.67;0.67;;;;;11.49;100.00;101475.03;5047529;28;45228;-74
2023/04/11 04:56:36;;;;;;;;;5.33;2.00;;;;;11.23;100.00;101477.38;5047587;28;45253;-73
2023/04/11 04:59:01;;;;;;;;;4.67;3.33;;;;;11.45;100.00;101500.81;5039727;28;46277;-73
2023/04/11 05:01:27;;;;;;;;;5.00;3.67;;;;;11.46;100.00;101502.53;5048049;28;45238;-73
2023/04/11 05:04:04;;;;;;;;;7.33;3.00;;;;;11.51;100.00;101502.13;5037378;28;45406;-72
2023/04/11 05:06:31;;;;;;;;;2.33;2.33;;;;;11.68;100.00;101504.22;5017554;28;45759;-73
2023/04/11 05:08:58;;;;;;;;;3.33;3.00;;;;;11.76;100.00;101500.84;5024739;28;45458;-72
2023/04/11 05:11:25;;;;;;;;;6.67;4.00;;;;;11.60;100.00;101504.91;5048219;28;46597;-74
2023/04/11 05:13:50;;;;;;;;;4.00;2.67;;;;;11.45;100.00;101489.94;5043113;28;45284;-72
2023/04/11 05:16:16;;;;;;;;;3.33;1.00;;;;;11.55;100.00;101509.88;5030239;28;45272;-74
2023/04/11 05:18:42;;;;;;;;;2.00;2.00;;;;;11.71;100.00;101536.59;5044086;28;45489;-72
2023/04/11 05:21:08;;;;;;;;;5.67;2.00;;;;;11.77;100.00;101518.88;5020697;28;48048;-73
2023/04/11 05:23:33;;;;;;;;;3.33;1.00;;;;;11.64;100.00;101514.50;5041341;28;45746;-73
2023/04/11 05:26:00;;;;;;;;;2.00;2.00;;;;;11.84;100.00;101525.50;5021235;28;45358;-72
2023/04/11 05:28:25;;;;;;;;;4.00;3.00;;;;;11.82;100.00;101524.78;5043901;28;45636;-73
2023/04/11 05:30:50;;;;;;;;;3.00;3.00;;;;;11.43;100.00;101505.53;5010468;28;48361;-73
2023/04/11 05:33:16;;;;;;;;;4.33;3.67;;;;;11.51;100.00;101513.00;5044172;28;45965;-73
2023/04/11 05:35:42;;;;;;;;;3.00;3.00;;;;;11.64;100.00;101510.91;5029555;28;45501;-74
2023/04/11 05:38:08;;;;;;;;;2.00;2.00;;;;;11.57;100.00;101507.03;5045839;28;45420;-73
2023/04/11 05:40:35;;;;;;;;;7.33;3.33;;;;;11.71;100.00;101514.81;5029588;28;45566;-72
2023/04/11 05:43:00;;;;;;;;;4.33;3.00;;;;;11.66;100.00;101533.44;5025265;28;45394;-72
2023/04/11 05:45:25;;;;;;;;;7.67;2.33;;;;;11.43;100.00;101486.47;5038374;28;45657;-73
2023/04/11 05:47:51;;;;;;;;;4.00;3.33;;;;;11.38;100.00;101496.91;5047174;28;45586;-74
2023/04/11 05:50:16;;;;;;;;;1.33;1.00;;;;;11.60;100.00;101518.50;5048097;28;45355;-75
2023/04/11 05:52:41;;;;;;;;;4.00;3.67;;;;;11.79;100.00;101536.81;5032844;28;45272;-73
2023/04/11 05:55:08;;;;;;;;;1.33;1.33;;;;;11.95;100.00;101519.97;5030813;28;45263;-72
2023/04/11 05:57:33;;;;;;;;;1.33;1.33;;;;;11.78;100.00;101482.50;5043222;28;45668;-73
2023/04/11 06:00:00;;;;;;;;;1.67;1.67;;;;;12.08;100.00;101528.72;5042119;28;46314;-73
2023/04/11 06:02:26;;;;;;;;;6.00;3.33;;;;;12.01;100.00;101520.25;5049194;28;45317;-73
2023/04/11 06:04:52;;;;;;;;;2.67;1.67;;;;;11.95;100.00;101522.69;5016556;28;45340;-73
2023/04/11 06:07:18;;;;;;;;;2.67;2.00;;;;;12.03;100.00;101507.38;5045752;28;45545;-73
2023/04/11 06:09:43;;;;;;;;;2.67;1.33;;;;;11.97;100.00;101509.81;5028954;28;45716;-72
2023/04/11 06:12:08;;;;;;;;;3.00;2.00;;;;;11.74;100.00;101503.69;5044014;28;45414;-73
2023/04/11 06:14:34;;;;;;;;;0.00;0.00;;;;;11.88;100.00;101522.38;5027732;28;45429;-73
2023/04/11 06:17:00;;;;;;;;;6.00;1.67;;;;;12.17;100.00;101548.84;5048313;28;45299;-74
2023/04/11 06:19:25;;;;;;;;;3.33;3.00;;;;;12.19;100.00;101544.97;5046056;28;46149;-73
2023/04/11 06:21:50;;;;;;;;;1.67;1.00;;;;;12.27;100.00;101544.28;5020290;28;45423;-73
2023/04/11 06:24:17;;;;;;;;;3.67;2.00;;;;;12.10;100.00;101526.75;5035657;28;45480;-74
2023/04/11 06:26:43;;;;;;;;;4.33;3.00;;;;;12.13;100.00;101547.41;5042416;28;45382;-74
2023/04/11 06:29:08;;;;;;;;;2.00;2.00;;;;;12.14;100.00;101522.72;5023801;28;45464;-76
2023/04/11 06:31:34;;;;;;;;;3.33;1.67;;;;;12.39;100.00;101556.78;5044194;28;45269;-75
2023/04/11 06:34:00;;;;;;;;;3.67;2.00;;;;;12.54;100.00;101547.19;5040614;28;45470;-77
2023/04/11 06:36:26;;;;;;;;;2.00;2.00;;;;;12.59;100.00;101553.06;5041364;28;45738;-76
2023/04/11 06:38:52;;;;;;;;;6.00;4.00;;;;;12.69;100.00;101553.09;5032874;28;45368;-76
2023/04/11 06:41:17;;;;;;;;;5.33;2.00;;;;;12.49;100.00;101512.16;5045632;28;46447;-78
2023/04/11 06:43:42;;;;;;;;;15.33;11.33;;;;;12.40;100.00;101504.88;5025441;28;45349;-75
2023/04/11 06:46:08;;;;;;;;;2.00;1.33;;;;;13.06;100.00;101555.97;5025382;28;45725;-75
2023/04/11 06:48:33;;;;;;;;;4.67;1.67;;;;;13.14;100.00;101562.44;5043772;28;45694;-75
2023/04/11 06:50:59;;;;;;;;;6.00;3.00;;;;;12.77;100.00;101558.69;5034940;28;45296;-76
2023/04/11 06:53:24;;;;;;;;;8.67;3.00;;;;;12.60;100.00;101562.13;5045113;28;45708;-76
2023/04/11 06:55:49;;;;;;;;;8.67;5.00;;;;;12.70;100.00;101563.00;5034491;28;45487;-75
2023/04/11 06:58:15;;;;;;;;;2.33;2.33;;;;;12.72;100.00;101571.88;5027440;28;46137;-76
2023/04/11 07:00:41;;;;;;;;;4.33;3.00;;;;;12.69;100.00;101572.19;5052147;28;45416;-74
2023/04/11 07:03:06;;;;;;;;;2.33;2.33;;;;;12.67;100.00;101555.09;5046261;28;47266;-75
2023/04/11 07:05:32;;;;;;;;;6.67;3.67;;;;;12.78;100.00;101577.63;5053445;28;45222;-76
2023/04/11 07:07:57;;;;;;;;;3.67;3.67;;;;;12.80;100.00;101574.75;5042317;28;46099;-76
2023/04/11 07:10:24;;;;;;;;;5.00;2.00;;;;;13.05;100.00;101589.69;5016482;28;45274;-77
2023/04/11 07:12:49;;;;;;;;;4.00;2.33;;;;;12.81;100.00;101582.78;5030012;28;45443;-76
2023/04/11 07:15:14;;;;;;;;;3.67;3.00;;;;;12.70;100.00;101596.59;5047338;28;45371;-77
2023/04/11 07:17:40;;;;;;;;;3.67;3.00;;;;;12.88;100.00;101583.09;5042735;28;45506;-77
2023/04/11 07:20:10;;;;;;;;;3.00;2.67;;;;;13.07;100.00;101585.84;5046726;28;45390;-76
2023/04/11 07:22:35;;;;;;;;;3.33;2.33;;;;;13.20;100.00;101564.59;5024597;28;45643;-75
2023/04/11 07:25:03;;;;;;;;;6.00;4.00;;;;;13.40;100.00;101578.19;5017984;28;45498;-74
2023/04/11 07:27:31;;;;;;;;;5.00;3.00;;;;;13.65;100.00;101588.50;5014179;28;47398;-76
2023/04/11 07:29:56;;;;;;;;;10.33;5.67;;;;;13.21;100.00;101560.88;5018693;28;45550;-77
2023/04/11 07:32:22;;;;;;;;;6.67;3.00;;;;;13.52;100.00;101574.28;5043397;28;45359;-74
2023/04/11 07:34:47;;;;;;;;;4.33;2.67;;;;;13.63;100.00;101580.44;5029940;28;45654;-76
2023/04/11 07:37:13;;;;;;;;;3.33;2.67;;;;;13.68;100.00;101566.34;5040555;28;45379;-75
2023/04/11 07:39:39;;;;;;;;;6.00;3.00;;;;;13.62;100.00;101570.53;5046563;28;45544;-76
2023/04/11 07:42:05;;;;;;;;;6.00;4.67;;;;;13.69;100.00;101575.41;5043370;28;45258;-75
2023/04/11 07:44:30;;;;;;;;;5.00;3.00;;;;;13.93;100.00;101586.69;5042210;28;45291;-75
2023/04/11 07:46:56;;;;;;;;;3.00;1.33;;;;;13.94;100.00;101589.28;5045525;28;45400;-74
2023/04/11 07:49:21;;;;;;;;;3.00;3.00;;;;;13.94;100.00;101582.94;5028552;28;45705;-76
2023/04/11 07:51:46;;;;;;;;;7.00;2.00;;;;;14.05;100.00;101580.00;5045104;28;45690;-75
2023/04/11 07:54:12;;;;;;;;;3.33;2.67;;;;;14.07;100.00;101566.19;5046508;28;45219;-75
2023/04/11 07:56:37;;;;;;;;;5.00;1.00;;;;;13.81;100.00;101560.53;5017578;28;47443;-75
2023/04/11 07:59:03;;;;;;;;;6.33;3.67;;;;;14.06;100.00;101565.34;5019836;28;45245;-75
2023/04/11 08:01:28;;;;;;;;;4.00;2.00;;;;;14.19;100.00;101563.09;5028540;28;45388;-76
2023/04/11 08:03:54;;;;;;;;;4.67;3.00;;;;;13.58;100.00;101551.88;5023617;28;45650;-75
2023/04/11 08:06:20;;;;;;;;;6.67;3.00;;;;;13.81;100.00;101555.94;5046774;28;46426;-75
2023/04/11 08:08:46;;;;;;;;;3.00;2.67;;;;;14.20;100.00;101556.63;5036837;28;45380;-75
2023/04/11 08:11:12;;;;;;;;;5.67;4.00;;;;;14.17;100.00;101562.38;5047042;28;45476;-75
2023/04/11 08:13:38;;;;;;;;;5.00;2.00;;;;;14.04;100.00;101562.75;5027748;28;45506;-75
2023/04/11 08:16:07;;;;;;;;;3.67;2.33;;;;;14.26;100.00;101577.03;5047154;28;45953;-75
2023/04/11 08:18:34;;;;;;;;;4.33;3.33;;;;;14.20;100.00;101591.28;5023820;28;45473;-75
2023/04/11 08:20:59;;;;;;;;;4.00;2.00;;;;;14.22;100.00;101578.34;5046377;28;45429;-75
2023/04/11 08:23:24;;;;;;;;;6.00;3.00;;;;;14.46;100.00;101586.88;5019417;28;45449;-75
2023/04/11 08:25:50;;;;;;;;;3.33;3.33;;;;;14.40;100.00;101580.13;5045266;28;46750;-75
2023/04/11 08:28:15;;;;;;;;;4.00;2.33;;;;;14.48;100.00;101557.50;5019233;28;45305;-76
2023/04/11 08:30:41;;;;;;;;;5.67;3.00;;;;;14.55;100.00;101585.06;5012676;28;45455;-75
2023/04/11 08:33:08;;;;;;;;;5.00;5.00;;;;;14.77;100.00;101557.28;5037679;28;45682;-76
2023/04/11 08:35:33;;;;;;;;;5.00;4.67;;;;;14.26;100.00;101566.94;5021672;28;47203;-75
2023/04/11 08:37:59;;;;;;;;;4.00;1.00;;;;;14.03;100.00;101577.41;5027186;28;45456;-75
2023/04/11 08:40:24;;;;;;;;;6.00;3.00;;;;;14.46;100.00;101572.34;5021640;28;45466;-75
2023/04/11 08:42:57;;;;;;;;;9.33;4.00;;;;;14.73;100.00;101562.22;5017526;28;45490;-75
2023/04/11 08:45:22;;;;;;;;;2.67;2.00;;;;;15.02;100.00;101585.75;5045421;28;46813;-75
2023/04/11 08:47:48;;;;;;;;;6.33;4.00;;;;;15.20;100.00;101575.63;5049228;28;45227;-74
2023/04/11 08:50:14;;;;;;;;;8.33;4.00;;;;;14.63;100.00;101580.56;5030372;28;45423;-75
2023/04/11 08:52:42;;;;;;;;;3.00;2.00;;;;;14.77;100.00;101584.63;5049240;28;45556;-75
2023/04/11 08:55:08;;;;;;;;;5.00;3.00;;;;;14.39;100.00;101589.34;5047884;28;45685;-74
2023/04/11 08:57:36;;;;;;;;;4.67;3.33;;;;;14.66;100.00;101595.81;5021519;28;45158;-74
2023/04/11 09:00:13;;;;;;;;;5.67;3.33;;;;;14.75;100.00;101587.56;5023901;28;45301;-75
2023/04/11 09:03:05;;;;;;;;;4.67;3.67;;;;;15.29;100.00;101598.47;5041347;28;45426;-74
2023/04/11 09:05:42;;;;;;;;;7.00;2.00;;;;;14.95;100.00;101585.53;5029175;28;45597;-76
2023/04/11 09:08:10;;;;;;;;;2.00;1.00;;;;;15.24;100.00;101588.00;5040290;28;45494;-76
2023/04/11 09:10:37;;;;;;;;;6.67;3.00;;;;;15.28;100.00;101597.59;5049206;28;45319;-76
2023/04/11 09:13:26;;;;;;;;;4.33;3.33;;;;;14.95;100.00;101579.19;5029930;28;45625;-73
2023/04/11 09:16:08;;;;;;;;;6.67;3.67;;;;;15.18;100.00;101589.50;5048006;28;46507;-74
2023/04/11 09:18:36;;;;;;;;;4.33;3.00;;;;;15.56;100.00;101580.06;5042372;28;45261;-75
2023/04/11 09:21:04;;;;;;;;;5.00;3.00;;;;;15.72;100.00;101583.94;5039170;28;45476;-73
2023/04/11 09:23:29;;;;;;;;;5.00;3.33;;;;;15.64;100.00;101584.72;5046493;28;45579;-75
2023/04/11 09:25:55;;;;;;;;;7.67;4.33;;;;;15.23;100.00;101583.53;5049382;28;45457;-76
2023/04/11 09:28:21;;;;;;;;;3.00;2.00;;;;;15.30;100.00;101578.28;5044110;28;45294;-76
2023/04/11 09:30:51;;;;;;;;;3.33;2.33;;;;;15.42;100.00;101583.34;5040903;28;45197;-75
2023/04/11 09:33:30;;;;;;;;;3.67;2.33;;;;;15.35;100.00;101587.75;5047892;28;45245;-75
2023/04/11 09:35:56;;;;;;;;;2.00;2.00;;;;;15.71;100.00;101576.72;5019231;28;47177;-75
2023/04/11 09:38:32;;;;;;;;;5.00;3.00;;;;;15.85;100.00;101573.41;5030927;28;45494;-75
2023/04/11 09:41:03;;;;;;;;;5.00;1.33;;;;;15.99;100.00;101580.16;5042115;28;45340;-74
2023/04/11 09:43:50;;;;;;;;;5.00;2.00;;;;;15.70;100.00;101577.78;5049190;28;45400;-74
2023/04/11 09:46:19;;;;;;;;;6.33;3.00;;;;;15.99;100.00;101572.81;5037838;28;45545;-74
2023/04/11 09:48:45;;;;;;;;;7.67;3.00;;;;;15.71;100.00;101563.03;5021452;28;45435;-74
2023/04/11 09:51:10;;;;;;;;;5.00;4.00;;;;;15.47;100.00;101552.75;5025954;28;45414;-76
2023/04/11 09:53:36;;;;;;;;;4.67;3.00;;;;;15.81;100.00;101561.03;5038526;28;45415;-76
2023/04/11 09:56:03;;;;;;;;;3.33;2.67;;;;;15.96;100.00;101576.72;5052553;28;45343;-74
2023/04/11 09:58:35;;;;;;;;;3.00;3.00;;;;;15.81;100.00;101583.81;5016834;28;45337;-75
2023/04/11 10:01:01;;;;;;;;;9.00;5.00;;;;;16.11;100.00;101579.72;5053165;28;45228;-73
2023/04/11 10:03:27;;;;;;;;;5.67;5.33;;;;;16.20;100.00;101581.47;5040895;28;45540;-74
2023/04/11 10:05:54;;;;;;;;;4.00;2.00;;;;;16.64;100.00;101575.81;5050472;28;46576;-75
2023/04/11 10:08:46;;;;;;;;;3.67;3.00;;;;;16.86;100.00;101571.56;5038376;28;45319;-75
2023/04/11 10:11:13;;;;;;;;;8.33;7.00;;;;;16.66;100.00;101547.16;5023118;28;45455;-75
2023/04/11 10:13:43;;;;;;;;;5.67;2.67;;;;;16.64;100.00;101581.31;5019283;28;45633;-75
2023/04/11 10:16:13;;;;;;;;;2.67;2.00;;;;;16.29;100.00;101582.38;5029227;28;48437;-73
2023/04/11 10:18:59;;;;;;;;;3.67;3.00;;;;;16.64;100.00;101573.06;5051454;28;45358;-74
2023/04/11 10:21:31;;;;;;;;;5.33;3.00;;;;;16.29;100.00;101561.25;5050778;28;45386;-73
2023/04/11 10:24:06;;;;;;;;;4.00;4.00;;;;;16.65;100.00;101559.19;5039530;28;45391;-74
2023/04/11 10:27:02;;;;;;;;;3.00;2.00;;;;;16.97;100.00;101544.66;5046562;28;45514;-74
2023/04/11 10:29:39;;;;;;;;;4.00;3.00;;;;;16.90;100.00;101551.84;5036627;28;45328;-74
2023/04/11 10:32:12;;;;;;;;;2.00;2.00;;;;;17.38;100.00;101547.41;5028183;28;45403;-76
2023/04/11 10:34:40;;;;;;;;;6.67;3.00;;;;;17.79;100.00;101540.81;5050600;28;45402;-74
2023/04/11 10:37:08;;;;;;;;;5.33;3.00;;;;;18.03;100.00;101552.78;5047108;28;46195;-75
2023/04/11 10:39:48;;;;;;;;;2.33;1.00;;;;;17.61;100.00;101553.91;5041658;28;45276;-75
2023/04/11 10:42:43;;;;;;;;;5.33;4.33;;;;;17.79;100.00;101534.47;5023920;28;45537;-76
2023/04/11 10:45:15;;;;;;;;;3.33;3.33;;;;;17.86;100.00;101535.47;5042292;28;45450;-75
2023/04/11 10:47:41;;;;;;;;;4.00;4.00;;;;;18.47;100.00;101528.31;5048119;28;45559;-75
2023/04/11 10:50:26;;;;;;;;;2.67;2.00;;;;;18.36;100.00;101526.81;5049160;28;45434;-75
2023/04/11 10:52:51;;;;;;;;;1.67;1.67;;;;;17.50;100.00;101544.09;5038119;28;45477;-75
2023/04/11 10:55:18;;;;;;;;;3.00;3.00;;;;;17.13;100.00;101521.81;5042399;28;45461;-75
2023/04/11 10:58:06;;;;;;;;;3.00;3.00;;;;;16.35;100.00;101540.56;5046937;28;46349;-75
2023/04/11 11:03:29;;;;;;;;;5.00;3.33;;;;;17.14;100.00;101523.53;5039654;28;45528;-74
2023/04/11 11:06:02;;;;;;;;;2.00;2.00;;;;;17.43;100.00;101507.38;5038892;28;45566;-75
2023/04/11 11:08:36;;;;;;;;;3.67;3.00;;;;;17.74;100.00;101510.25;5033369;28;46421;-75
2023/04/11 11:11:07;;;;;;;;;3.00;2.00;;;;;17.90;100.00;101493.69;5045148;28;45611;-76
2023/04/11 11:13:48;;;;;;;;;2.00;2.00;;;;;18.11;100.00;101489.50;5046297;28;45355;-75
2023/04/11 11:16:15;;;;;;;;;2.67;2.67;;;;;17.36;100.00;101478.03;5047145;28;45668;-75
2023/04/11 11:18:47;;;;;;;;;0.33;0.00;;;;;17.39;100.00;101485.91;5023355;28;46660;-74
2023/04/11 11:21:14;;;;;;;;;2.33;2.33;;;;;17.50;100.00;101489.16;5011975;28;45308;-75